Time;durP1;ratioP1;P1;durP2;ratioP2;P2;SDS_P1;SDS_P2;PMS_P1;PMS_P2;Temp;Humidity;BMP_temperature;BMP_pressure;BME280_temperature;BME280_humidity;BME280_pressure;Samples;Min_cycle;Max_cycle;Signal;HPM_P1;HPM_P2
2022/11/05 00:09:28;;;;;;;;;;;20.00;43.50;;;;;;4977761;28;20016;-65
2022/11/05 00:17:05;;;;;;;;;;;20.00;43.40;;;;;;4987060;28;20171;-63
2022/11/05 00:19:33;;;;;;;;;;;19.90;43.30;;;;;;4990408;28;19930;-64
2022/11/05 00:27:28;;;;;;;;;;;20.00;43.40;;;;;;4974677;28;19930;-63
2022/11/05 00:29:54;;;;;;;;;;;19.90;43.30;;;;;;4968068;28;20024;-65
2022/11/05 00:32:21;;;;;;;;;;;19.90;43.30;;;;;;4985212;28;20451;-64
2022/11/05 00:34:49;;;;;;;;;;;19.90;43.20;;;;;;4976214;28;19983;-63
2022/11/05 00:37:16;;;;;;;;;;;19.90;43.20;;;;;;4975157;28;19926;-65
2022/11/05 00:39:43;;;;;;;;;;;19.90;43.20;;;;;;4974892;28;19957;-65
2022/11/05 00:45:03;;;;;;;;;;;19.90;43.20;;;;;;4987414;28;19922;-62
2022/11/05 00:50:15;;;;;;;;;;;19.90;43.20;;;;;;4964894;28;19925;-63
2022/11/05 00:52:58;;;;;;;;;;;19.90;43.20;;;;;;4972016;28;19976;-63
2022/11/05 00:55:25;;;;;;;;;;;19.90;43.20;;;;;;4974826;28;19929;-62
2022/11/05 00:57:52;;;;;;;;;;;19.90;43.20;;;;;;4973609;28;19926;-62
2022/11/05 01:00:19;;;;;;;;;;;19.90;43.10;;;;;;4974662;28;19936;-66
2022/11/05 01:02:46;;;;;;;;;;;19.90;43.20;;;;;;4989443;28;20025;-63
2022/11/05 01:05:12;;;;;;;;;;;19.90;43.20;;;;;;4972975;28;20037;-64
2022/11/05 01:07:40;;;;;;;;;;;19.80;43.00;;;;;;4989901;28;19930;-67
2022/11/05 01:10:07;;;;;;;;;;;19.90;43.20;;;;;;4963967;28;20016;-65
2022/11/05 01:12:34;;;;;;;;;;;19.90;43.10;;;;;;4967908;28;19932;-64
2022/11/05 01:15:01;;;;;;;;;;;19.90;43.20;;;;;;4973486;28;19988;-63
2022/11/05 01:17:27;;;;;;;;;;;19.90;43.20;;;;;;4987025;28;19925;-66
2022/11/05 01:19:54;;;;;;;;;;;19.90;43.20;;;;;;4972312;28;20398;-63
2022/11/05 01:22:21;;;;;;;;;;;19.90;43.10;;;;;;4990243;28;19926;-63
2022/11/05 01:24:49;;;;;;;;;;;19.80;43.10;;;;;;4994002;28;19934;-63
2022/11/05 01:27:16;;;;;;;;;;;19.80;43.00;;;;;;4977375;28;19972;-63
2022/11/05 01:29:43;;;;;;;;;;;19.80;43.00;;;;;;4977135;28;19968;-63
2022/11/05 01:32:09;;;;;;;;;;;19.80;43.00;;;;;;4987639;28;19930;-64
2022/11/05 01:34:36;;;;;;;;;;;19.80;43.00;;;;;;4970686;28;20417;-66
2022/11/05 01:37:05;;;;;;;;;;;19.80;43.00;;;;;;4969004;28;19989;-63
2022/11/05 01:39:31;;;;;;;;;;;19.80;43.00;;;;;;4990427;28;19984;-63
2022/11/05 01:41:59;;;;;;;;;;;19.80;43.00;;;;;;4982403;28;19980;-63
2022/11/05 01:44:46;;;;;;;;;;;19.80;43.00;;;;;;4982169;28;20018;-62
2022/11/05 01:47:13;;;;;;;;;;;19.80;43.00;;;;;;4993081;28;19929;-64
2022/11/05 01:49:40;;;;;;;;;;;19.80;43.00;;;;;;4991072;28;19969;-65
2022/11/05 01:52:07;;;;;;;;;;;19.80;43.00;;;;;;4984857;28;19965;-64
2022/11/05 01:54:33;;;;;;;;;;;19.80;43.00;;;;;;4991437;28;19926;-63
2022/11/05 01:57:01;;;;;;;;;;;19.80;43.00;;;;;;4972500;28;19930;-64
2022/11/05 01:59:29;;;;;;;;;;;19.80;43.00;;;;;;4974137;28;19932;-64
2022/11/05 02:01:56;;;;;;;;;;;19.80;42.90;;;;;;4991346;28;20008;-62
2022/11/05 02:04:24;;;;;;;;;;;19.80;42.90;;;;;;4991836;28;19934;-62
2022/11/05 02:06:52;;;;;;;;;;;19.80;42.90;;;;;;4966263;28;20511;-68
2022/11/05 02:09:22;;;;;;;;;;;19.80;43.00;;;;;;4991255;28;19925;-63
2022/11/05 02:11:49;;;;;;;;;;;19.80;42.90;;;;;;4975471;28;19921;-63
2022/11/05 02:14:18;;;;;;;;;;;19.80;42.90;;;;;;4967587;28;19926;-63
2022/11/05 02:16:46;;;;;;;;;;;19.80;42.90;;;;;;4973522;28;19926;-63
2022/11/05 02:19:22;;;;;;;;;;;19.80;42.90;;;;;;4987743;28;19980;-63
2022/11/05 02:22:00;;;;;;;;;;;19.80;42.90;;;;;;4972475;28;20029;-64
2022/11/05 02:24:50;;;;;;;;;;;19.80;42.90;;;;;;4985389;28;20024;-63
2022/11/05 02:27:18;;;;;;;;;;;19.80;42.90;;;;;;4959606;28;20040;-63
2022/11/05 02:29:55;;;;;;;;;;;19.80;42.90;;;;;;4976816;28;20021;-64
2022/11/05 02:32:26;;;;;;;;;;;19.70;42.80;;;;;;4970906;28;19985;-63
2022/11/05 02:34:55;;;;;;;;;;;19.70;42.80;;;;;;4983035;28;20016;-63
2022/11/05 02:37:25;;;;;;;;;;;19.70;42.80;;;;;;4973931;28;19933;-64
2022/11/05 02:39:53;;;;;;;;;;;19.80;42.90;;;;;;4973213;28;19978;-67
2022/11/05 02:42:22;;;;;;;;;;;19.70;42.70;;;;;;4969930;28;19990;-62
2022/11/05 02:44:52;;;;;;;;;;;19.80;42.80;;;;;;4968309;28;20009;-63
2022/11/05 02:47:21;;;;;;;;;;;19.70;42.70;;;;;;4992521;28;19961;-63
2022/11/05 02:49:51;;;;;;;;;;;19.70;42.70;;;;;;4998343;28;19926;-63
2022/11/05 02:52:19;;;;;;;;;;;19.80;42.80;;;;;;4969813;28;19930;-63
2022/11/05 02:54:47;;;;;;;;;;;19.70;42.70;;;;;;4969808;28;20460;-65
2022/11/05 02:57:13;;;;;;;;;;;19.80;42.80;;;;;;4983564;28;19969;-62
2022/11/05 02:59:40;;;;;;;;;;;19.70;42.70;;;;;;4977269;28;19930;-65
2022/11/05 03:02:07;;;;;;;;;;;19.70;42.70;;;;;;4968076;28;19985;-62
2022/11/05 03:04:33;;;;;;;;;;;19.70;42.60;;;;;;4927648;28;1879534;-65
2022/11/05 03:07:04;;;;;;;;;;;19.70;42.60;;;;;;4978219;28;19925;-64
2022/11/05 03:09:37;;;;;;;;;;;19.70;42.60;;;;;;4985044;28;19990;-62
2022/11/05 03:12:07;;;;;;;;;;;19.70;42.60;;;;;;4995213;28;19972;-63
2022/11/05 03:14:38;;;;;;;;;;;19.70;42.60;;;;;;4996910;28;20332;-66
2022/11/05 03:17:06;;;;;;;;;;;19.70;42.60;;;;;;4970661;28;19926;-63
2022/11/05 03:19:34;;;;;;;;;;;19.70;42.60;;;;;;4968241;28;20041;-63
2022/11/05 03:22:02;;;;;;;;;;;19.70;42.60;;;;;;4996971;28;19925;-64
2022/11/05 03:24:30;;;;;;;;;;;19.70;42.60;;;;;;4996739;28;19957;-63
2022/11/05 03:26:57;;;;;;;;;;;19.70;42.50;;;;;;4976928;28;20372;-63
2022/11/05 03:29:25;;;;;;;;;;;19.70;42.50;;;;;;4975187;28;19930;-63
2022/11/05 03:31:52;;;;;;;;;;;19.70;42.50;;;;;;4975808;28;19937;-69
2022/11/05 03:34:19;;;;;;;;;;;19.70;42.50;;;;;;4978415;28;19984;-63
2022/11/05 03:36:47;;;;;;;;;;;19.70;42.50;;;;;;4970973;28;19981;-63
2022/11/05 03:39:15;;;;;;;;;;;19.70;43.10;;;;;;4965506;28;20008;-65
2022/11/05 03:41:43;;;;;;;;;;;19.70;42.50;;;;;;4994323;28;20021;-67
2022/11/05 03:44:10;;;;;;;;;;;19.70;42.50;;;;;;4995992;28;19976;-64
2022/11/05 03:46:38;;;;;;;;;;;19.70;42.50;;;;;;4991590;28;20016;-63
2022/11/05 03:49:06;;;;;;;;;;;19.70;42.50;;;;;;4999553;28;19925;-62
2022/11/05 03:51:36;;;;;;;;;;;19.70;42.50;;;;;;4992425;28;20025;-62
2022/11/05 03:54:03;;;;;;;;;;;19.70;42.50;;;;;;4997622;28;20406;-63
2022/11/05 03:56:30;;;;;;;;;;;19.70;42.40;;;;;;4990499;28;20376;-64
2022/11/05 03:58:58;;;;;;;;;;;19.70;42.40;;;;;;4992709;28;19956;-63
2022/11/05 04:01:25;;;;;;;;;;;19.70;42.40;;;;;;4975218;28;20021;-63
2022/11/05 04:03:52;;;;;;;;;;;19.70;42.40;;;;;;4972360;28;19965;-63
2022/11/05 04:14:33;;;;;;;;;;;19.70;42.30;;;;;;4973921;28;20012;-63
2022/11/05 04:17:08;;;;;;;;;;;19.70;42.30;;;;;;4994201;28;19965;-62
2022/11/05 04:25:05;;;;;;;;;;;19.60;42.20;;;;;;4993711;28;19926;-64
2022/11/05 04:27:31;;;;;;;;;;;19.60;42.20;;;;;;4993767;28;19930;-64
2022/11/05 04:32:54;;;;;;;;;;;19.70;42.20;;;;;;4988558;28;19925;-64
2022/11/05 04:35:21;;;;;;;;;;;19.70;42.20;;;;;;4974393;28;19972;-64
2022/11/05 04:37:47;;;;;;;;;;;19.70;42.20;;;;;;4994607;28;19930;-63
2022/11/05 04:40:14;;;;;;;;;;;19.70;42.20;;;;;;4992337;28;19992;-63
2022/11/05 04:42:41;;;;;;;;;;;19.60;42.20;;;;;;4977006;28;19926;-64
2022/11/05 04:45:09;;;;;;;;;;;19.60;42.20;;;;;;5000532;28;20384;-63
2022/11/05 04:47:36;;;;;;;;;;;19.70;42.20;;;;;;4977744;28;19930;-64
2022/11/05 04:50:02;;;;;;;;;;;19.60;42.20;;;;;;4993422;28;19926;-62
2022/11/05 04:52:29;;;;;;;;;;;19.60;42.10;;;;;;4983994;28;19926;-62
2022/11/05 04:54:56;;;;;;;;;;;19.60;42.10;;;;;;4975901;28;19968;-62
2022/11/05 04:57:22;;;;;;;;;;;19.60;42.10;;;;;;4990771;28;19937;-63
2022/11/05 04:59:50;;;;;;;;;;;19.60;42.10;;;;;;4985612;28;20012;-64
2022/11/05 05:02:18;;;;;;;;;;;19.60;42.10;;;;;;4984265;28;19932;-62
2022/11/05 05:04:45;;;;;;;;;;;19.60;42.10;;;;;;4976876;28;19932;-62
2022/11/05 05:07:12;;;;;;;;;;;19.60;42.10;;;;;;4975132;28;19976;-65
2022/11/05 05:09:39;;;;;;;;;;;19.60;42.10;;;;;;4976554;28;19926;-63
2022/11/05 05:12:06;;;;;;;;;;;19.60;42.00;;;;;;4987293;28;20016;-63
2022/11/05 05:14:34;;;;;;;;;;;19.60;42.00;;;;;;4977950;28;19933;-62
2022/11/05 05:17:04;;;;;;;;;;;19.60;42.00;;;;;;4973551;28;19930;-63
2022/11/05 05:21:37;;;;;;;;;;;19.60;42.00;;;;;;4993386;28;19973;-63
2022/11/05 05:22:17;;;;;;;;;;;19.60;42.00;;;;;;4982181;28;19927;-64
2022/11/05 05:24:44;;;;;;;;;;;19.60;42.00;;;;;;4989400;28;20508;-66
2022/11/05 05:27:11;;;;;;;;;;;19.60;42.00;;;;;;4991798;28;19985;-63
2022/11/05 05:29:38;;;;;;;;;;;19.60;42.00;;;;;;4976838;28;19980;-63
2022/11/05 05:32:05;;;;;;;;;;;19.60;42.00;;;;;;4975295;28;19930;-66
2022/11/05 05:34:33;;;;;;;;;;;19.60;42.00;;;;;;4971390;28;19936;-63
2022/11/05 05:37:00;;;;;;;;;;;19.60;42.00;;;;;;4975305;28;19933;-63
2022/11/05 05:39:27;;;;;;;;;;;19.60;42.00;;;;;;4980374;28;20012;-66
2022/11/05 05:41:53;;;;;;;;;;;19.60;42.00;;;;;;4992452;28;19934;-64
2022/11/05 05:44:20;;;;;;;;;;;19.60;42.00;;;;;;4988490;28;20001;-62
2022/11/05 05:46:47;;;;;;;;;;;19.60;42.00;;;;;;4972961;28;20031;-64
2022/11/05 05:49:14;;;;;;;;;;;19.60;42.00;;;;;;4974493;28;19929;-64
2022/11/05 05:51:42;;;;;;;;;;;19.60;42.00;;;;;;4992043;28;20017;-63
2022/11/05 05:54:10;;;;;;;;;;;19.60;42.00;;;;;;4974241;28;20415;-63
2022/11/05 05:56:36;;;;;;;;;;;19.60;42.00;;;;;;4978092;28;19964;-64
2022/11/05 05:59:04;;;;;;;;;;;19.60;42.00;;;;;;4983162;28;20419;-67
2022/11/05 06:01:31;;;;;;;;;;;19.60;41.90;;;;;;4968877;28;20005;-66
2022/11/05 06:03:58;;;;;;;;;;;19.60;42.00;;;;;;4991462;28;20044;-63
2022/11/05 06:06:24;;;;;;;;;;;19.60;42.00;;;;;;4989691;28;19929;-63
2022/11/05 06:08:52;;;;;;;;;;;19.60;42.00;;;;;;4989161;28;19926;-63
2022/11/05 06:11:19;;;;;;;;;;;19.60;42.00;;;;;;4979379;28;19954;-62
2022/11/05 06:13:49;;;;;;;;;;;19.60;41.90;;;;;;4995511;28;19952;-62
2022/11/05 06:16:15;;;;;;;;;;;19.60;41.90;;;;;;4992182;28;19926;-64
2022/11/05 06:18:42;;;;;;;;;;;19.60;41.90;;;;;;4974355;28;19965;-65
2022/11/05 06:21:09;;;;;;;;;;;19.60;41.90;;;;;;4994013;28;20475;-63
2022/11/05 06:23:37;;;;;;;;;;;19.60;41.90;;;;;;4991260;28;19969;-66
2022/11/05 06:26:06;;;;;;;;;;;19.60;41.90;;;;;;4973128;28;19989;-66
2022/11/05 06:28:33;;;;;;;;;;;19.60;41.90;;;;;;4974170;28;19933;-68
2022/11/05 06:31:00;;;;;;;;;;;19.60;41.90;;;;;;4976755;28;19926;-63
2022/11/05 06:33:29;;;;;;;;;;;19.60;41.90;;;;;;4973328;28;20413;-63
2022/11/05 06:35:57;;;;;;;;;;;19.60;41.90;;;;;;4987837;28;19957;-66
2022/11/05 06:38:24;;;;;;;;;;;19.60;41.90;;;;;;4973860;28;19965;-63
2022/11/05 06:40:52;;;;;;;;;;;19.60;41.90;;;;;;4990935;28;19930;-62
2022/11/05 06:43:20;;;;;;;;;;;19.60;41.90;;;;;;4982432;28;20015;-63
2022/11/05 06:45:47;;;;;;;;;;;19.60;41.90;;;;;;4992528;28;20046;-63
2022/11/05 06:48:13;;;;;;;;;;;19.60;41.90;;;;;;4973467;28;19960;-62
2022/11/05 06:50:43;;;;;;;;;;;19.60;41.90;;;;;;4986638;28;20027;-65
2022/11/05 06:53:09;;;;;;;;;;;19.60;41.90;;;;;;4991977;28;20029;-62
2022/11/05 06:55:36;;;;;;;;;;;19.60;41.90;;;;;;4980025;28;19932;-64
2022/11/05 06:58:03;;;;;;;;;;;19.60;41.90;;;;;;4974539;28;19926;-64
2022/11/05 07:00:31;;;;;;;;;;;19.60;41.90;;;;;;4973222;28;19968;-62
2022/11/05 07:03:02;;;;;;;;;;;19.60;41.90;;;;;;5001429;28;20040;-63
2022/11/05 07:05:29;;;;;;;;;;;19.60;41.90;;;;;;4981036;28;19926;-63
2022/11/05 07:07:56;;;;;;;;;;;19.60;41.90;;;;;;4996256;28;19977;-62
2022/11/05 07:10:22;;;;;;;;;;;19.60;41.90;;;;;;4975103;28;19973;-63
2022/11/05 07:12:49;;;;;;;;;;;19.60;41.90;;;;;;4989851;28;19961;-64
2022/11/05 07:15:16;;;;;;;;;;;19.60;41.90;;;;;;4970613;28;19933;-64
2022/11/05 07:17:44;;;;;;;;;;;19.60;41.90;;;;;;4987016;28;19980;-63
2022/11/05 07:20:11;;;;;;;;;;;19.50;41.80;;;;;;4972115;28;19925;-65
2022/11/05 07:22:38;;;;;;;;;;;19.60;41.90;;;;;;4972835;28;20391;-63
2022/11/05 07:25:05;;;;;;;;;;;19.60;41.90;;;;;;4974402;28;20024;-63
2022/11/05 07:27:32;;;;;;;;;;;19.60;41.90;;;;;;4971401;28;19926;-64
2022/11/05 07:29:58;;;;;;;;;;;19.60;41.90;;;;;;4971487;28;19925;-64
2022/11/05 07:32:25;;;;;;;;;;;19.60;41.90;;;;;;4991027;28;19984;-63
2022/11/05 07:34:53;;;;;;;;;;;19.60;41.90;;;;;;4991338;28;20344;-64
2022/11/05 07:37:20;;;;;;;;;;;19.60;41.90;;;;;;4988888;28;19926;-64
2022/11/05 07:39:46;;;;;;;;;;;19.60;41.90;;;;;;4973570;28;20009;-62
2022/11/05 07:42:13;;;;;;;;;;;19.60;41.90;;;;;;4972917;28;19930;-63
2022/11/05 07:44:40;;;;;;;;;;;19.60;41.90;;;;;;4969814;28;20474;-65
2022/11/05 07:47:07;;;;;;;;;;;19.60;41.90;;;;;;4987720;28;20048;-66
2022/11/05 07:49:34;;;;;;;;;;;19.60;41.90;;;;;;4986098;28;19926;-64
2022/11/05 07:52:02;;;;;;;;;;;19.60;41.90;;;;;;4974683;28;20454;-65
2022/11/05 07:54:28;;;;;;;;;;;19.60;41.90;;;;;;4974142;28;19930;-64
2022/11/05 07:56:55;;;;;;;;;;;19.60;41.90;;;;;;4975439;28;19930;-63
2022/11/05 07:59:22;;;;;;;;;;;19.60;41.90;;;;;;4977073;28;19929;-64
2022/11/05 08:01:48;;;;;;;;;;;19.60;41.90;;;;;;4993365;28;19930;-65
2022/11/05 08:04:15;;;;;;;;;;;19.60;42.00;;;;;;4993901;28;19965;-64
2022/11/05 08:06:42;;;;;;;;;;;19.60;41.90;;;;;;4994841;28;19949;-63
2022/11/05 08:09:10;;;;;;;;;;;19.60;42.00;;;;;;4992684;28;19969;-66
2022/11/05 08:11:37;;;;;;;;;;;19.60;42.00;;;;;;4987929;28;19963;-64
2022/11/05 08:14:04;;;;;;;;;;;19.60;42.00;;;;;;4972863;28;20033;-64
2022/11/05 08:16:30;;;;;;;;;;;19.60;42.00;;;;;;4981574;28;20022;-63
2022/11/05 08:18:57;;;;;;;;;;;19.60;42.00;;;;;;4992887;28;20294;-65
2022/11/05 08:21:23;;;;;;;;;;;19.60;42.00;;;;;;4977859;28;19933;-63
2022/11/05 08:23:50;;;;;;;;;;;19.60;42.00;;;;;;4975227;28;20365;-64
2022/11/05 08:26:19;;;;;;;;;;;19.60;42.00;;;;;;4983998;28;20037;-65
2022/11/05 08:28:46;;;;;;;;;;;19.60;42.00;;;;;;4973992;28;19930;-64
2022/11/05 08:31:14;;;;;;;;;;;19.70;42.10;;;;;;4990351;28;20002;-64
2022/11/05 08:33:41;;;;;;;;;;;19.60;42.00;;;;;;4972275;28;19926;-64
2022/11/05 08:36:07;;;;;;;;;;;19.70;42.10;;;;;;4991631;28;19929;-65
2022/11/05 08:38:34;;;;;;;;;;;19.70;42.10;;;;;;4996715;28;19932;-65
2022/11/05 08:41:01;;;;;;;;;;;19.70;42.20;;;;;;4990043;28;19933;-63
2022/11/05 08:43:29;;;;;;;;;;;19.70;42.20;;;;;;4988475;28;19922;-66
2022/11/05 08:45:55;;;;;;;;;;;19.70;42.20;;;;;;4986201;28;19940;-63
2022/11/05 08:48:22;;;;;;;;;;;19.60;42.10;;;;;;4995981;28;19932;-63
2022/11/05 08:50:49;;;;;;;;;;;19.70;42.20;;;;;;4976650;28;19965;-63
2022/11/05 08:53:16;;;;;;;;;;;19.60;42.10;;;;;;4969472;28;19941;-63
2022/11/05 08:55:43;;;;;;;;;;;19.60;42.10;;;;;;4971385;28;20384;-65
2022/11/05 08:58:11;;;;;;;;;;;19.70;42.20;;;;;;4972167;28;19926;-64
2022/11/05 09:00:39;;;;;;;;;;;19.60;42.10;;;;;;4990768;28;19934;-64
2022/11/05 09:03:06;;;;;;;;;;;19.70;42.20;;;;;;4969628;28;19954;-64
2022/11/05 09:05:36;;;;;;;;;;;19.60;42.10;;;;;;4971062;28;19957;-65
2022/11/05 09:08:03;;;;;;;;;;;19.60;42.10;;;;;;4971357;28;19926;-64
2022/11/05 09:10:30;;;;;;;;;;;19.70;42.20;;;;;;4973502;28;19965;-64
2022/11/05 09:12:56;;;;;;;;;;;19.60;42.20;;;;;;4973696;28;19984;-66
2022/11/05 09:15:23;;;;;;;;;;;19.70;42.20;;;;;;4992760;28;20011;-64
2022/11/05 09:17:51;;;;;;;;;;;19.70;42.20;;;;;;4987557;28;19932;-66
2022/11/05 09:20:18;;;;;;;;;;;19.70;42.20;;;;;;4979625;28;19926;-64
2022/11/05 09:22:45;;;;;;;;;;;19.70;42.20;;;;;;4979186;28;19953;-67
2022/11/05 09:25:11;;;;;;;;;;;19.70;42.20;;;;;;4987431;28;20004;-65
2022/11/05 09:27:38;;;;;;;;;;;19.70;42.20;;;;;;4991046;28;19926;-65
2022/11/05 09:30:05;;;;;;;;;;;19.70;42.20;;;;;;4970490;28;20566;-65
2022/11/05 09:32:32;;;;;;;;;;;19.70;42.90;;;;;;4989408;28;19933;-63
2022/11/05 09:35:00;;;;;;;;;;;19.70;42.20;;;;;;4974156;28;19934;-63
2022/11/05 09:37:27;;;;;;;;;;;19.70;42.30;;;;;;4976353;28;19929;-65
2022/11/05 09:39:53;;;;;;;;;;;19.70;42.20;;;;;;4974462;28;19941;-64
2022/11/05 09:42:21;;;;;;;;;;;19.70;42.10;;;;;;4986240;28;19940;-66
2022/11/05 09:44:48;;;;;;;;;;;19.70;41.40;;;;;;4976505;28;20005;-66
2022/11/05 09:47:15;;;;;;;;;;;19.60;41.10;;;;;;4971188;28;20028;-63
2022/11/05 09:49:42;;;;;;;;;;;19.60;40.80;;;;;;4981397;28;20317;-65
2022/11/05 09:52:14;;;;;;;;;;;19.50;40.90;;;;;;4982201;28;19926;-67
2022/11/05 09:54:40;;;;;;;;;;;19.50;41.10;;;;;;4981262;28;19965;-64
2022/11/05 09:57:11;;;;;;;;;;;19.40;41.20;;;;;;5000318;28;19933;-63
2022/11/05 09:59:40;;;;;;;;;;;19.40;41.40;;;;;;4971869;28;19926;-64
2022/11/05 10:02:11;;;;;;;;;;;19.40;41.40;;;;;;4994162;28;20394;-65
2022/11/05 10:04:37;;;;;;;;;;;19.40;41.50;;;;;;4990213;28;20013;-64
2022/11/05 10:07:05;;;;;;;;;;;19.40;41.60;;;;;;4991688;28;19973;-65
2022/11/05 10:09:35;;;;;;;;;;;19.40;41.60;;;;;;4986821;28;20009;-64
2022/11/05 10:12:02;;;;;;;;;;;19.40;41.60;;;;;;4990577;28;19932;-64
2022/11/05 10:14:30;;;;;;;;;;;19.40;41.60;;;;;;4990518;28;19976;-64
2022/11/05 10:16:58;;;;;;;;;;;19.40;41.70;;;;;;4993295;28;19929;-64
2022/11/05 10:19:25;;;;;;;;;;;19.50;41.80;;;;;;4989800;28;19936;-67
2022/11/05 10:21:53;;;;;;;;;;;19.50;41.90;;;;;;4989367;28;20017;-66
2022/11/05 10:24:20;;;;;;;;;;;19.50;41.80;;;;;;4987806;28;19926;-63
2022/11/05 10:26:49;;;;;;;;;;;19.50;41.80;;;;;;4990244;28;19989;-65
2022/11/05 10:29:17;;;;;;;;;;;19.50;41.90;;;;;;4980270;28;20422;-64
2022/11/05 10:31:43;;;;;;;;;;;19.60;41.90;;;;;;4974024;28;19964;-65
2022/11/05 10:34:16;;;;;;;;;;;19.60;42.00;;;;;;4966476;28;19969;-63
2022/11/05 10:36:43;;;;;;;;;;;19.60;42.00;;;;;;4989220;28;19926;-66
2022/11/05 10:39:11;;;;;;;;;;;19.60;41.90;;;;;;4966592;28;20037;-64
2022/11/05 10:41:42;;;;;;;;;;;19.60;42.60;;;;;;4968094;28;20052;-63
2022/11/05 10:44:13;;;;;;;;;;;19.60;42.00;;;;;;4986548;28;20033;-65
2022/11/05 10:46:41;;;;;;;;;;;19.60;42.00;;;;;;4971967;28;20005;-64
2022/11/05 10:49:14;;;;;;;;;;;19.60;42.10;;;;;;4990132;28;20016;-64
2022/11/05 10:51:40;;;;;;;;;;;19.70;42.20;;;;;;4975539;28;20024;-67
2022/11/05 10:54:11;;;;;;;;;;;19.70;42.20;;;;;;4973285;28;19929;-62
2022/11/05 10:56:38;;;;;;;;;;;19.60;42.20;;;;;;4970934;28;20012;-63
2022/11/05 10:59:06;;;;;;;;;;;19.70;42.20;;;;;;4985895;28;20299;-63
2022/11/05 11:01:34;;;;;;;;;;;19.70;42.30;;;;;;4985693;28;19952;-62
2022/11/05 11:04:05;;;;;;;;;;;19.70;42.30;;;;;;4973927;28;20016;-65
2022/11/05 11:06:33;;;;;;;;;;;19.70;42.30;;;;;;4973256;28;20005;-63
2022/11/05 11:09:00;;;;;;;;;;;19.70;42.30;;;;;;4973205;28;20002;-65
2022/11/05 11:11:28;;;;;;;;;;;19.70;42.30;;;;;;4989875;28;20391;-63
2022/11/05 11:13:59;;;;;;;;;;;19.70;42.30;;;;;;4969812;28;19933;-64
2022/11/05 11:16:26;;;;;;;;;;;19.70;42.30;;;;;;4995220;28;20076;-66
2022/11/05 11:18:55;;;;;;;;;;;19.70;42.30;;;;;;4977081;28;20029;-63
2022/11/05 11:21:23;;;;;;;;;;;19.70;42.30;;;;;;4976072;28;19926;-62
2022/11/05 11:23:53;;;;;;;;;;;19.70;42.30;;;;;;4988537;28;19965;-62
2022/11/05 11:26:20;;;;;;;;;;;19.70;42.30;;;;;;4978958;28;19984;-62
2022/11/05 11:28:48;;;;;;;;;;;19.80;42.50;;;;;;4980504;28;19929;-63
2022/11/05 11:31:15;;;;;;;;;;;19.70;42.40;;;;;;4992801;28;20009;-64
2022/11/05 11:33:43;;;;;;;;;;;19.70;42.40;;;;;;4976481;28;19933;-66
2022/11/05 11:36:11;;;;;;;;;;;19.80;42.50;;;;;;4969407;28;19926;-63
2022/11/05 11:38:38;;;;;;;;;;;19.80;42.60;;;;;;4976185;28;20026;-63
2022/11/05 11:41:07;;;;;;;;;;;19.80;42.60;;;;;;4971479;28;19932;-65
2022/11/05 11:43:34;;;;;;;;;;;19.80;42.60;;;;;;4971928;28;20056;-63
2022/11/05 11:46:03;;;;;;;;;;;19.80;42.60;;;;;;4990585;28;19954;-63
2022/11/05 11:48:30;;;;;;;;;;;19.80;42.60;;;;;;4979482;28;19936;-64
2022/11/05 11:50:57;;;;;;;;;;;19.80;42.60;;;;;;4977676;28;19934;-65
2022/11/05 11:53:29;;;;;;;;;;;19.80;42.60;;;;;;4992046;28;20025;-65
2022/11/05 11:55:57;;;;;;;;;;;19.80;42.60;;;;;;4988843;28;20041;-64
2022/11/05 11:58:24;;;;;;;;;;;19.80;42.60;;;;;;4992762;28;19926;-64
2022/11/05 12:00:52;;;;;;;;;;;19.80;42.70;;;;;;4978424;28;19926;-65
2022/11/05 12:03:21;;;;;;;;;;;19.80;42.70;;;;;;4990623;28;19932;-62
2022/11/05 12:05:48;;;;;;;;;;;19.80;43.30;;;;;;4962625;28;19977;-63
2022/11/05 12:08:22;;;;;;;;;;;19.80;42.70;;;;;;4976205;28;20057;-63
2022/11/05 12:11:04;;;;;;;;;;;19.80;42.70;;;;;;4984776;28;19932;-64
2022/11/05 12:13:39;;;;;;;;;;;19.80;42.70;;;;;;5000104;28;19926;-62
2022/11/05 12:16:07;;;;;;;;;;;19.80;43.30;;;;;;4987250;28;19926;-63
2022/11/05 12:18:35;;;;;;;;;;;19.80;42.80;;;;;;4980748;28;19933;-63
2022/11/05 12:21:05;;;;;;;;;;;19.80;42.80;;;;;;4968865;28;20028;-64
2022/11/05 12:23:36;;;;;;;;;;;19.80;42.90;;;;;;5001001;28;19933;-65
2022/11/05 12:26:06;;;;;;;;;;;19.80;42.90;;;;;;4988604;28;19922;-65
2022/11/05 12:28:37;;;;;;;;;;;19.90;42.90;;;;;;4992002;28;19929;-64
2022/11/05 12:31:05;;;;;;;;;;;19.80;42.90;;;;;;4990176;28;19973;-64
2022/11/05 12:33:38;;;;;;;;;;;19.90;43.10;;;;;;4998963;28;19932;-63
2022/11/05 12:36:11;;;;;;;;;;;19.90;43.10;;;;;;5002442;28;20371;-63
2022/11/05 12:38:53;;;;;;;;;;;19.90;43.10;;;;;;4999952;28;20029;-63
2022/11/05 12:41:20;;;;;;;;;;;19.90;43.10;;;;;;4968666;28;20020;-63
2022/11/05 12:43:52;;;;;;;;;;;19.90;43.20;;;;;;4990046;28;19926;-65
2022/11/05 12:46:24;;;;;;;;;;;19.90;43.20;;;;;;4975889;28;19926;-64
2022/11/05 12:49:00;;;;;;;;;;;19.90;43.20;;;;;;4987146;28;19929;-66
2022/11/05 12:51:30;;;;;;;;;;;19.90;43.20;;;;;;4976373;28;20020;-65
2022/11/05 12:54:00;;;;;;;;;;;19.90;43.40;;;;;;4995276;28;19930;-63
2022/11/05 12:56:29;;;;;;;;;;;19.90;43.40;;;;;;4989009;28;19981;-65
2022/11/05 12:59:00;;;;;;;;;;;19.90;43.60;;;;;;4993067;28;19933;-65
2022/11/05 13:01:28;;;;;;;;;;;20.00;43.70;;;;;;4989165;28;20024;-64
2022/11/05 13:03:55;;;;;;;;;;;20.00;43.80;;;;;;4977790;28;19930;-65
2022/11/05 13:06:24;;;;;;;;;;;20.00;43.80;;;;;;4975999;28;19957;-70
2022/11/05 13:08:52;;;;;;;;;;;20.00;43.80;;;;;;4992243;28;19936;-68
2022/11/05 13:11:20;;;;;;;;;;;20.00;43.90;;;;;;4987839;28;19963;-68
2022/11/05 13:13:48;;;;;;;;;;;20.00;43.90;;;;;;4992539;28;19932;-68
2022/11/05 13:16:17;;;;;;;;;;;20.00;43.90;;;;;;4986474;28;19972;-70
2022/11/05 13:18:44;;;;;;;;;;;20.50;44.10;;;;;;4995478;28;20020;-69
2022/11/05 13:21:11;;;;;;;;;;;21.10;44.50;;;;;;4993201;28;20027;-66
2022/11/05 13:23:40;;;;;;;;;;;22.30;42.90;;;;;;4975818;28;19985;-67
2022/11/05 13:26:07;;;;;;;;;;;23.40;41.30;;;;;;4992283;28;19926;-68
2022/11/05 13:28:35;;;;;;;;;;;24.40;39.80;;;;;;4982433;28;19930;-68
2022/11/05 13:31:04;;;;;;;;;;;25.30;38.40;;;;;;4974969;28;19953;-69
2022/11/05 13:33:32;;;;;;;;;;;26.00;37.40;;;;;;4981852;28;19933;-69
2022/11/05 13:38:59;;;;;;;;;;;27.00;35.40;;;;;;4995297;28;19934;-68
2022/11/05 13:41:28;;;;;;;;;;;27.40;34.70;;;;;;4979022;28;19980;-70
2022/11/05 13:43:58;;;;;;;;;;;27.80;34.00;;;;;;4984241;28;19985;-74
2022/11/05 13:46:28;;;;;;;;;;;28.00;33.60;;;;;;4982528;28;19932;-71
2022/11/05 13:49:06;;;;;;;;;;;28.20;33.20;;;;;;4979403;28;19969;-68
2022/11/05 13:51:42;;;;;;;;;;;28.50;32.50;;;;;;4968494;28;19926;-71
2022/11/05 13:54:33;;;;;;;;;;;28.70;32.20;;;;;;4994701;28;19940;-69
2022/11/05 13:57:03;;;;;;;;;;;29.00;31.60;;;;;;4978029;28;19972;-68
2022/11/05 13:59:33;;;;;;;;;;;29.40;31.20;;;;;;4973991;28;19971;-70
2022/11/05 14:02:01;;;;;;;;;;;29.70;30.60;;;;;;4994195;28;20265;-70
2022/11/05 14:04:30;;;;;;;;;;;30.00;30.30;;;;;;5000015;28;19937;-74
2022/11/05 14:07:05;;;;;;;;;;;30.10;30.10;;;;;;4974109;28;20029;-68
2022/11/05 14:09:33;;;;;;;;;;;30.40;29.50;;;;;;4998381;28;20040;-69
2022/11/05 14:12:00;;;;;;;;;;;30.80;29.50;;;;;;4978037;28;19948;-68
2022/11/05 14:14:27;;;;;;;;;;;31.10;29.10;;;;;;4976493;28;19932;-69
2022/11/05 14:16:54;;;;;;;;;;;31.40;28.80;;;;;;4973134;28;20009;-73
2022/11/05 14:19:30;;;;;;;;;;;31.70;28.30;;;;;;4974399;28;20360;-67
2022/11/05 14:21:56;;;;;;;;;;;32.10;28.00;;;;;;4980323;28;20483;-69
2022/11/05 14:24:27;;;;;;;;;;;32.40;27.70;;;;;;4993511;28;20376;-68
2022/11/05 14:27:12;;;;;;;;;;;32.70;27.40;;;;;;4975064;28;19965;-67
2022/11/05 14:29:39;;;;;;;;;;;32.80;27.20;;;;;;4992399;28;19972;-67
2022/11/05 14:32:23;;;;;;;;;;;33.00;27.10;;;;;;4990572;28;20009;-71
2022/11/05 14:34:55;;;;;;;;;;;33.00;26.90;;;;;;4977627;28;19925;-69
2022/11/05 14:37:22;;;;;;;;;;;33.00;26.80;;;;;;4969977;28;20408;-68
2022/11/05 14:39:49;;;;;;;;;;;33.10;26.60;;;;;;4990470;28;20048;-71
2022/11/05 14:42:16;;;;;;;;;;;33.10;26.50;;;;;;4972108;28;19933;-70
2022/11/05 14:45:13;;;;;;;;;;;33.10;26.40;;;;;;4992666;28;19930;-66
2022/11/05 14:47:40;;;;;;;;;;;33.10;26.50;;;;;;4911723;29;19933;-69
2022/11/05 14:50:10;;;;;;;;;;;33.10;26.60;;;;;;4964885;28;20025;-67
2022/11/05 14:52:37;;;;;;;;;;;33.00;26.50;;;;;;5004446;28;19925;-67
2022/11/05 14:55:04;;;;;;;;;;;33.00;26.50;;;;;;4972679;28;19936;-67
2022/11/05 14:58:00;;;;;;;;;;;33.00;26.40;;;;;;4969851;28;20036;-65
2022/11/05 15:00:43;;;;;;;;;;;33.10;26.50;;;;;;4991713;28;19985;-63
2022/11/05 15:03:24;;;;;;;;;;;33.30;26.40;;;;;;4980026;28;19932;-66
2022/11/05 15:05:53;;;;;;;;;;;33.00;26.90;;;;;;4975524;28;19965;-64
2022/11/05 15:08:20;;;;;;;;;;;;;;;;;;4995116;28;19925;-67